Time;durP1;ratioP1;P1;durP2;ratioP2;P2;SDS_P1;SDS_P2;PMS_P1;PMS_P2;Temp;Humidity;BMP_temperature;BMP_pressure;BME280_temperature;BME280_humidity;BME280_pressure;Samples;Min_cycle;Max_cycle;Signal;HPM_P1;HPM_P2
2022/08/07 00:00:27;;;;;;;5.13;3.23;;;16.70;99.70;;;;;;5012246;28;20682;-84
2022/08/07 00:02:56;;;;;;;5.63;3.10;;;16.60;99.90;;;;;;5010606;28;20271;-84
2022/08/07 00:05:22;;;;;;;3.60;3.30;;;16.60;99.90;;;;;;5010997;28;20194;-84
2022/08/07 00:07:48;;;;;;;4.87;3.47;;;16.60;99.90;;;;;;5014095;28;20492;-83
2022/08/07 00:10:14;;;;;;;6.10;3.30;;;16.60;99.90;;;;;;5012378;28;20500;-85
2022/08/07 00:12:42;;;;;;;6.30;3.80;;;16.60;99.90;;;;;;5014375;28;20189;-86
2022/08/07 00:15:09;;;;;;;6.53;3.60;;;16.60;99.90;;;;;;5016528;28;20468;-85
2022/08/07 00:17:35;;;;;;;4.77;3.50;;;16.60;99.90;;;;;;5015118;28;20956;-84
2022/08/07 00:20:00;;;;;;;5.30;3.33;;;16.60;99.90;;;;;;5019232;28;20469;-84
2022/08/07 00:22:26;;;;;;;4.23;3.43;;;16.50;99.90;;;;;;5011808;28;20433;-84
2022/08/07 00:24:52;;;;;;;4.03;3.37;;;16.40;99.90;;;;;;5017273;28;20204;-85
2022/08/07 00:27:17;;;;;;;4.83;4.40;;;16.40;99.90;;;;;;5012211;28;20329;-84
2022/08/07 00:29:43;;;;;;;4.87;4.00;;;16.40;99.90;;;;;;5010727;28;20217;-85
2022/08/07 00:32:10;;;;;;;8.50;3.60;;;16.30;99.90;;;;;;5007956;28;20203;-85
2022/08/07 00:34:35;;;;;;;4.17;3.10;;;16.20;99.90;;;;;;5011407;28;20200;-84
2022/08/07 00:37:02;;;;;;;5.07;3.60;;;16.20;99.90;;;;;;5013453;28;20437;-84
2022/08/07 00:39:27;;;;;;;4.40;3.47;;;16.20;99.90;;;;;;5008672;28;20225;-85
2022/08/07 00:41:56;;;;;;;3.67;3.33;;;16.20;99.90;;;;;;5013197;28;20797;-84
2022/08/07 00:44:22;;;;;;;4.37;2.90;;;16.30;99.90;;;;;;5010251;28;20197;-84
2022/08/07 00:46:48;;;;;;;4.80;3.30;;;16.30;99.90;;;;;;5014999;28;20493;-84
2022/08/07 00:49:13;;;;;;;7.07;2.83;;;16.30;99.90;;;;;;5009245;28;20183;-84
2022/08/07 00:51:39;;;;;;;6.90;3.23;;;16.30;99.90;;;;;;5016521;28;20438;-84
2022/08/07 00:54:06;;;;;;;4.63;3.13;;;16.20;99.90;;;;;;5013048;28;20181;-85
2022/08/07 00:56:32;;;;;;;4.30;3.10;;;16.20;99.90;;;;;;5013885;28;20182;-84
2022/08/07 00:58:58;;;;;;;11.30;3.07;;;16.20;99.90;;;;;;5014956;28;20468;-84
2022/08/07 01:01:24;;;;;;;5.10;3.37;;;16.20;99.90;;;;;;5010989;28;20437;-84
2022/08/07 01:03:50;;;;;;;3.27;2.97;;;16.20;99.90;;;;;;5010476;28;20444;-84
2022/08/07 01:06:17;;;;;;;6.97;3.60;;;16.10;99.90;;;;;;5015862;28;20186;-84
2022/08/07 01:08:44;;;;;;;3.90;3.57;;;16.10;99.90;;;;;;5014014;28;20448;-84
2022/08/07 01:11:13;;;;;;;4.00;3.60;;;16.10;99.90;;;;;;5012811;28;20519;-83
2022/08/07 01:13:39;;;;;;;7.63;3.73;;;16.00;99.90;;;;;;5032990;28;20453;-84
2022/08/07 01:16:06;;;;;;;6.60;3.63;;;16.00;99.90;;;;;;5016787;28;20427;-84
2022/08/07 01:18:32;;;;;;;3.77;3.33;;;16.00;99.90;;;;;;5013684;28;20481;-83
2022/08/07 01:21:09;;;;;;;4.23;3.50;;;16.00;99.90;;;;;;5017491;28;20469;-84
2022/08/07 01:23:35;;;;;;;6.30;3.50;;;16.00;99.90;;;;;;5016590;28;20528;-84
2022/08/07 01:26:02;;;;;;;4.63;3.63;;;16.00;99.90;;;;;;5013042;28;20434;-83
2022/08/07 01:28:29;;;;;;;10.47;4.00;;;16.00;99.90;;;;;;5009814;28;20598;-84
2022/08/07 01:30:55;;;;;;;9.30;3.43;;;15.90;99.90;;;;;;5016012;28;20458;-83
2022/08/07 01:33:22;;;;;;;7.17;3.90;;;15.90;99.90;;;;;;5011338;28;20524;-84
2022/08/07 01:35:48;;;;;;;5.10;4.23;;;15.90;99.90;;;;;;5007920;28;20437;-83
2022/08/07 01:38:13;;;;;;;7.40;3.70;;;15.80;99.90;;;;;;5014115;28;20960;-84
2022/08/07 01:40:41;;;;;;;5.20;3.83;;;15.80;99.90;;;;;;5014045;28;20308;-84
2022/08/07 01:43:07;;;;;;;5.83;3.60;;;15.80;99.90;;;;;;5015858;28;20201;-85
2022/08/07 01:45:34;;;;;;;5.63;3.70;;;15.70;99.90;;;;;;5018238;28;20420;-84
2022/08/07 01:47:59;;;;;;;8.17;4.27;;;15.70;99.90;;;;;;5015076;28;20195;-84
2022/08/07 01:50:26;;;;;;;4.23;3.83;;;15.70;99.90;;;;;;5012105;28;20495;-84
2022/08/07 01:52:54;;;;;;;4.87;3.87;;;15.60;99.90;;;;;;5018538;28;20185;-84
2022/08/07 01:55:25;;;;;;;4.93;3.50;;;15.60;99.90;;;;;;5017412;28;20445;-84
2022/08/07 01:57:54;;;;;;;9.87;4.27;;;15.60;99.90;;;;;;5009315;28;20533;-85
2022/08/07 02:00:20;;;;;;;6.60;3.83;;;15.60;99.90;;;;;;5014049;28;20455;-84
2022/08/07 02:02:52;;;;;;;4.07;3.57;;;15.50;99.90;;;;;;5015671;28;20438;-84
2022/08/07 02:05:25;;;;;;;5.03;3.77;;;15.50;99.90;;;;;;5014766;28;20437;-84
2022/08/07 02:07:53;;;;;;;5.77;3.93;;;15.50;99.90;;;;;;5014360;28;20432;-84
2022/08/07 02:10:23;;;;;;;5.43;3.70;;;15.50;99.90;;;;;;5016418;28;21031;-84
2022/08/07 02:12:50;;;;;;;5.97;3.97;;;15.50;99.90;;;;;;5015669;28;20447;-84
2022/08/07 02:15:21;;;;;;;5.30;3.70;;;15.50;99.90;;;;;;5014742;28;20452;-85
2022/08/07 02:17:48;;;;;;;4.17;3.60;;;15.50;99.90;;;;;;5008707;28;20439;-85
2022/08/07 02:20:16;;;;;;;5.33;4.30;;;15.50;99.90;;;;;;5013521;28;20927;-85
2022/08/07 02:22:42;;;;;;;4.33;3.70;;;15.40;99.90;;;;;;5017856;28;20448;-84
2022/08/07 02:25:10;;;;;;;4.63;4.23;;;15.40;99.90;;;;;;5013327;28;20427;-84
2022/08/07 02:27:38;;;;;;;4.87;4.30;;;15.40;99.90;;;;;;5010062;28;20470;-84
2022/08/07 02:30:04;;;;;;;5.03;4.53;;;15.40;99.90;;;;;;5014199;28;20451;-85
2022/08/07 02:32:31;;;;;;;4.50;4.03;;;15.40;99.90;;;;;;5015079;28;20481;-85
2022/08/07 02:34:58;;;;;;;8.43;4.37;;;15.40;99.90;;;;;;5011716;28;20502;-85
2022/08/07 02:37:26;;;;;;;5.10;4.33;;;15.30;99.90;;;;;;5014211;28;20442;-84
2022/08/07 02:39:53;;;;;;;5.17;4.67;;;15.30;99.90;;;;;;5018560;28;20539;-85
2022/08/07 02:42:20;;;;;;;5.00;4.17;;;15.30;99.90;;;;;;5011386;28;20433;-84
2022/08/07 02:44:48;;;;;;;4.57;4.17;;;15.20;99.90;;;;;;5004558;28;20433;-84
2022/08/07 02:47:16;;;;;;;6.70;4.93;;;15.20;99.90;;;;;;5011615;28;20487;-85
2022/08/07 02:49:43;;;;;;;4.60;4.20;;;15.20;99.90;;;;;;5009890;28;20475;-84
2022/08/07 02:52:17;;;;;;;5.10;4.37;;;15.20;99.90;;;;;;5010806;28;20482;-85
2022/08/07 02:54:44;;;;;;;8.90;5.20;;;15.10;1.00;;;;;;5010846;28;20466;-83
2022/08/07 02:57:14;;;;;;;7.70;5.43;;;15.00;1.00;;;;;;5009766;28;20436;-85
2022/08/07 02:59:47;;;;;;;5.87;5.23;;;14.90;1.00;;;;;;5007618;28;21065;-85
2022/08/07 03:02:14;;;;;;;6.70;5.40;;;14.90;1.00;;;;;;5012557;28;21139;-84
2022/08/07 03:04:42;;;;;;;8.70;5.17;;;14.80;1.00;;;;;;5013391;28;20443;-84
2022/08/07 03:07:08;;;;;;;5.33;4.80;;;14.70;1.00;;;;;;5007078;28;20495;-85
2022/08/07 03:09:34;;;;;;;5.90;4.93;;;14.60;16.10;;;;;;5007404;28;20470;-85
2022/08/07 03:12:02;;;;;;;8.33;5.10;;;14.60;1.00;;;;;;5011741;28;20439;-85
2022/08/07 03:14:28;;;;;;;5.90;5.30;;;14.70;1.00;;;;;;5012829;28;20961;-84
2022/08/07 03:16:55;;;;;;;6.83;4.97;;;14.70;1.00;;;;;;5006854;28;21024;-85
2022/08/07 03:19:22;;;;;;;6.10;5.27;;;14.70;95.00;;;;;;5012637;28;22360;-85
2022/08/07 03:21:49;;;;;;;11.33;6.10;;;14.60;99.90;;;;;;5013000;28;20442;-85
2022/08/07 03:24:15;;;;;;;8.93;5.20;;;14.60;99.90;;;;;;5009852;28;20490;-85
2022/08/07 03:26:42;;;;;;;6.70;4.83;;;14.50;99.90;;;;;;5011819;28;20810;-86
2022/08/07 03:29:10;;;;;;;5.20;4.67;;;14.50;99.90;;;;;;5010301;28;20606;-85
2022/08/07 03:31:37;;;;;;;6.87;4.70;;;14.60;99.90;;;;;;5013634;28;20432;-86
2022/08/07 03:34:06;;;;;;;6.90;5.00;;;14.60;93.50;;;;;;5007823;28;20428;-85
2022/08/07 03:36:33;;;;;;;5.47;4.67;;;14.60;50.30;;;;;;5018888;28;20462;-85
2022/08/07 03:39:04;;;;;;;4.83;4.40;;;14.60;14.10;;;;;;5014378;28;20466;-85
2022/08/07 03:41:31;;;;;;;5.67;4.33;;;14.60;1.00;;;;;;5006084;28;20446;-85
2022/08/07 03:43:57;;;;;;;5.60;4.67;;;14.60;1.00;;;;;;5002124;28;20544;-85
2022/08/07 03:46:25;;;;;;;8.23;4.90;;;14.60;1.00;;;;;;5015382;28;20448;-85
2022/08/07 03:48:51;;;;;;;6.87;4.90;;;14.60;1.00;;;;;;5011319;28;20440;-85
2022/08/07 03:51:19;;;;;;;5.07;4.60;;;14.60;5.20;;;;;;5025760;28;20463;-85
2022/08/07 03:53:44;;;;;;;6.60;5.47;;;14.60;1.00;;;;;;5012026;28;20803;-85
2022/08/07 03:56:12;;;;;;;6.33;5.03;;;14.60;1.00;;;;;;5014695;28;20441;-85
2022/08/07 03:58:38;;;;;;;8.63;5.03;;;14.60;1.00;;;;;;5010439;28;20476;-85
2022/08/07 04:01:05;;;;;;;5.80;5.00;;;14.60;1.00;;;;;;5017866;28;20445;-85
2022/08/07 04:03:31;;;;;;;6.03;4.70;;;14.60;1.00;;;;;;5008492;28;20440;-85
2022/08/07 04:05:57;;;;;;;5.60;4.93;;;14.60;1.00;;;;;;5010247;28;20970;-85
2022/08/07 04:08:23;;;;;;;7.20;5.67;;;14.60;1.00;;;;;;5007900;28;20431;-85
2022/08/07 04:10:50;;;;;;;6.47;5.13;;;14.60;1.00;;;;;;5010139;28;20251;-84
2022/08/07 04:13:17;;;;;;;6.17;4.77;;;14.60;1.00;;;;;;5011281;28;20439;-84
2022/08/07 04:15:43;;;;;;;6.27;4.23;;;14.60;1.00;;;;;;5003272;28;20826;-85
2022/08/07 04:18:13;;;;;;;8.63;5.03;;;14.60;1.00;;;;;;5011103;28;20498;-84
2022/08/07 04:20:39;;;;;;;6.17;5.57;;;14.60;1.00;;;;;;5010318;28;20451;-85
2022/08/07 04:23:06;;;;;;;5.20;4.80;;;14.60;1.00;;;;;;5005426;28;20433;-85
2022/08/07 04:25:32;;;;;;;5.83;4.73;;;14.60;1.00;;;;;;5010399;28;20174;-84
2022/08/07 04:27:58;;;;;;;6.70;4.93;;;14.70;1.00;;;;;;5009735;28;20429;-84
2022/08/07 04:30:24;;;;;;;6.30;5.00;;;14.70;1.00;;;;;;5011890;28;20457;-84
2022/08/07 04:32:50;;;;;;;7.50;5.00;;;14.70;1.00;;;;;;5011153;28;20979;-84
2022/08/07 04:35:15;;;;;;;7.93;4.60;;;14.70;1.00;;;;;;5011509;28;20182;-84
2022/08/07 04:37:41;;;;;;;7.70;4.70;;;14.70;1.00;;;;;;5007627;28;20438;-84
2022/08/07 04:40:07;;;;;;;6.10;5.50;;;14.80;1.00;;;;;;5014399;28;20247;-85
2022/08/07 04:42:33;;;;;;;5.13;4.47;;;14.80;1.00;;;;;;5012335;28;20211;-84
2022/08/07 04:45:01;;;;;;;8.53;4.87;;;14.80;1.00;;;;;;5039853;22;20536;-84
2022/08/07 04:47:49;;;;;;;5.97;4.60;;;14.90;1.00;;;;;;4994263;28;20440;-88
2022/08/07 04:50:36;;;;;;;6.30;5.53;;;14.90;1.00;;;;;;4978615;28;20496;-85
2022/08/07 04:53:09;;;;;;;6.87;5.40;;;15.00;1.00;;;;;;4979805;28;20433;-84
2022/08/07 04:55:49;;;;;;;7.57;4.80;;;15.00;1.00;;;;;;4994834;28;20542;-86
2022/08/07 04:58:53;;;;;;;6.87;5.23;;;15.00;1.00;;;;;;4976267;28;20474;-84
2022/08/07 05:01:43;;;;;;;9.47;6.23;;;15.00;1.00;;;;;;4916923;29;21074;-84
2022/08/07 05:04:21;;;;;;;9.73;6.10;;;15.00;1.00;;;;;;4991022;28;20443;-85
2022/08/07 05:06:59;;;;;;;7.43;5.87;;;15.10;1.00;;;;;;4994399;28;20467;-85
2022/08/07 05:09:36;;;;;;;10.50;5.80;;;15.20;1.00;;;;;;4996981;28;20441;-85
2022/08/07 05:12:05;;;;;;;6.90;6.00;;;15.20;1.00;;;;;;4990577;28;20580;-83
2022/08/07 05:14:37;;;;;;;8.47;5.53;;;15.30;1.00;;;;;;4990862;28;20422;-84
2022/08/07 05:17:08;;;;;;;6.30;5.70;;;15.40;1.00;;;;;;4975726;28;20421;-84
2022/08/07 05:19:39;;;;;;;7.33;6.30;;;15.50;1.00;;;;;;4989530;28;20485;-85
2022/08/07 05:22:07;;;;;;;6.70;5.13;;;15.50;1.00;;;;;;4984410;28;20456;-86
2022/08/07 05:24:34;;;;;;;8.13;6.07;;;15.60;1.00;;;;;;4988283;28;20430;-85
2022/08/07 05:27:01;;;;;;;7.43;5.67;;;15.70;1.00;;;;;;4991857;28;20455;-85
2022/08/07 05:29:28;;;;;;;13.20;6.30;;;15.90;1.00;;;;;;4973817;28;20430;-82
2022/08/07 05:31:58;;;;;;;8.17;6.00;;;16.00;1.00;;;;;;4971788;28;20480;-84
2022/08/07 05:34:25;;;;;;;10.50;6.00;;;16.10;1.00;;;;;;4989528;28;20449;-85
2022/08/07 05:36:52;;;;;;;10.27;6.23;;;16.30;1.00;;;;;;4972482;28;20466;-86
2022/08/07 05:39:19;;;;;;;14.43;6.07;;;16.50;1.00;;;;;;4992128;28;20512;-85
2022/08/07 05:41:48;;;;;;;6.00;5.40;;;17.10;1.00;;;;;;4991451;28;20435;-83
2022/08/07 05:44:18;;;;;;;5.60;5.00;;;18.60;99.90;;;;;;4988398;28;20506;-85
2022/08/07 05:46:49;;;;;;;8.03;4.70;;;23.00;99.90;;;;;;4974166;28;20467;-86
2022/08/07 05:49:15;;;;;;;4.90;4.43;;;26.60;99.90;;;;;;4991501;28;20443;-87
2022/08/07 05:51:42;;;;;;;8.60;3.80;;;27.90;99.90;;;;;;4990073;28;20528;-86
2022/08/07 05:54:09;;;;;;;4.47;4.07;;;30.60;99.90;;;;;;4991619;28;20501;-87
2022/08/07 05:56:36;;;;;;;5.47;4.40;;;33.60;99.90;;;;;;4974947;28;20546;-86
2022/08/07 05:59:04;;;;;;;3.90;3.60;;;36.20;99.90;;;;;;4984175;28;20455;-87
2022/08/07 06:01:31;;;;;;;5.23;3.80;;;38.40;99.90;;;;;;4991485;28;20474;-87
2022/08/07 06:03:59;;;;;;;6.53;4.50;;;40.10;99.90;;;;;;4974355;28;20439;-87
2022/08/07 06:06:25;;;;;;;4.50;4.10;;;41.40;99.90;;;;;;4989219;28;20487;-87
2022/08/07 06:08:52;;;;;;;8.30;4.70;;;42.60;98.60;;;;;;4990314;28;20449;-88
2022/08/07 06:11:18;;;;;;;6.00;3.80;;;42.70;91.30;;;;;;4989929;28;22226;-87
2022/08/07 06:13:43;;;;;;;5.00;3.63;;;43.80;83.10;;;;;;4987350;28;20454;-88
2022/08/07 06:16:09;;;;;;;6.70;4.33;;;45.10;73.70;;;;;;4989368;28;20277;-86
2022/08/07 06:18:35;;;;;;;7.03;3.77;;;46.80;65.10;;;;;;4971222;28;20221;-85
2022/08/07 06:21:03;;;;;;;4.00;3.50;;;48.70;57.60;;;;;;4987950;28;20187;-88
2022/08/07 06:23:29;;;;;;;4.40;3.70;;;50.50;52.30;;;;;;4987586;28;20444;-88
2022/08/07 06:25:56;;;;;;;4.90;3.70;;;52.00;46.20;;;;;;4986871;28;20569;-88
2022/08/07 06:28:22;;;;;;;4.40;3.17;;;53.40;41.00;;;;;;4970837;28;20221;-88
2022/08/07 06:30:48;;;;;;;4.38;3.40;;;54.70;35.60;;;;;;4989977;28;20210;-87
2022/08/07 06:33:13;;;;;;;3.25;2.95;;;55.80;30.50;;;;;;4989158;28;20266;-87
2022/08/07 06:35:39;;;;;;;5.53;3.08;;;56.60;25.70;;;;;;4989171;28;20211;-89
2022/08/07 06:38:05;;;;;;;4.35;2.67;;;57.20;22.00;;;;;;4984859;28;20249;-89
2022/08/07 06:40:39;;;;;;;4.18;3.13;;;57.70;17.90;;;;;;4989446;28;20211;-89
2022/08/07 06:43:07;;;;;;;7.10;3.22;;;58.30;15.00;;;;;;4989964;28;20742;-89
2022/08/07 06:45:33;;;;;;;3.22;2.42;;;58.70;12.70;;;;;;4986886;28;20215;-89
2022/08/07 06:47:59;;;;;;;3.17;2.95;;;59.20;11.00;;;;;;4988957;28;20223;-89
2022/08/07 06:50:25;;;;;;;3.75;2.78;;;59.90;9.10;;;;;;4990068;28;20686;-86
2022/08/07 06:52:54;;;;;;;3.85;2.72;;;60.30;7.70;;;;;;4969094;28;20294;-89
2022/08/07 06:55:23;;;;;;;2.88;2.67;;;60.80;6.60;;;;;;4989478;28;20205;-89
2022/08/07 06:57:50;;;;;;;2.85;2.63;;;61.10;15.20;;;;;;4987149;28;20190;-89
2022/08/07 07:00:18;;;;;;;2.33;2.13;;;61.00;2.80;;;;;;4990301;28;20187;-89
2022/08/07 07:02:44;;;;;;;4.15;2.55;;;61.00;2.00;;;;;;4989766;28;20242;-89
2022/08/07 07:05:11;;;;;;;3.58;2.50;;;61.10;1.00;;;;;;4990195;28;20209;-89
2022/08/07 07:07:37;;;;;;;2.10;1.83;;;61.30;1.00;;;;;;4988217;28;20211;-90
2022/08/07 07:10:03;;;;;;;3.70;2.20;;;61.40;1.00;;;;;;4986492;28;20656;-90
2022/08/07 07:12:44;;;;;;;2.60;2.10;;;61.10;1.00;;;;;;4988812;28;20658;-90
2022/08/07 07:15:20;;;;;;;2.20;2.00;;;61.20;1.00;;;;;;4985312;28;22022;-90
2022/08/07 07:17:48;;;;;;;2.00;1.90;;;61.20;1.00;;;;;;4988570;28;20179;-89
2022/08/07 07:20:19;;;;;;;2.75;1.70;;;61.00;1.00;;;;;;4988657;28;20195;-87
2022/08/07 07:22:46;;;;;;;2.90;1.65;;;60.90;1.00;;;;;;4985311;28;20183;-89
2022/08/07 07:25:14;;;;;;;2.10;1.90;;;60.60;1.00;;;;;;4988772;28;20195;-89
2022/08/07 07:27:46;;;;;;;4.72;2.25;;;60.60;1.00;;;;;;4986416;28;20597;-88
2022/08/07 07:30:12;;;;;;;3.47;1.88;;;60.90;1.00;;;;;;4985317;28;20211;-87
2022/08/07 07:32:40;;;;;;;3.58;2.03;;;61.10;1.00;;;;;;4987536;28;20714;-89
2022/08/07 07:35:09;;;;;;;2.90;2.10;;;61.10;1.00;;;;;;4986145;28;20198;-89
2022/08/07 07:37:37;;;;;;;2.25;1.70;;;61.10;1.00;;;;;;4987716;28;20175;-89
2022/08/07 07:40:07;;;;;;;4.65;1.95;;;61.20;1.00;;;;;;4970660;28;20659;-88
2022/08/07 07:42:34;;;;;;;3.50;1.70;;;61.30;1.00;;;;;;4984080;28;20195;-89
2022/08/07 07:45:02;;;;;;;2.33;1.58;;;61.20;1.00;;;;;;4989952;28;20206;-88
2022/08/07 07:47:29;;;;;;;3.28;2.15;;;61.00;1.00;;;;;;4969751;28;20354;-89
2022/08/07 07:49:56;;;;;;;2.95;1.90;;;60.80;1.00;;;;;;4970680;28;20214;-86
2022/08/07 07:52:23;;;;;;;3.70;2.05;;;60.70;1.00;;;;;;4987492;28;20561;-86
2022/08/07 07:54:50;;;;;;;2.28;1.63;;;60.80;1.00;;;;;;4989043;28;20249;-87
2022/08/07 07:57:20;;;;;;;1.95;1.52;;;61.00;1.00;;;;;;4985832;28;20194;-90
2022/08/07 07:59:47;;;;;;;2.38;2.00;;;61.30;1.00;;;;;;4988834;28;20516;-87
2022/08/07 08:02:14;;;;;;;3.05;1.48;;;61.30;1.00;;;;;;4986944;28;20401;-88
2022/08/07 08:04:42;;;;;;;3.13;1.55;;;61.30;1.00;;;;;;4967950;28;20225;-87
2022/08/07 08:07:09;;;;;;;3.63;1.58;;;60.40;1.00;;;;;;4983354;28;20179;-89
2022/08/07 08:09:38;;;;;;;3.50;1.20;;;60.00;1.00;;;;;;4988608;28;20229;-89
2022/08/07 08:12:04;;;;;;;2.15;1.45;;;60.20;1.00;;;;;;4988419;28;20266;-88
2022/08/07 08:14:31;;;;;;;1.88;1.00;;;60.50;1.00;;;;;;4991079;28;20674;-86
2022/08/07 08:18:19;;;;;;;2.10;1.30;;;60.80;1.00;;;;;;5119728;23;20238;-89
2022/08/07 08:20:46;;;;;;;1.85;1.35;;;60.50;1.00;;;;;;4863717;29;20187;-89
2022/08/07 08:28:50;;;;;;;1.55;1.40;;;58.50;1.00;;;;;;4992457;28;20253;-87
2022/08/07 08:31:22;;;;;;;2.15;1.40;;;58.00;1.00;;;;;;4993145;28;20202;-88
2022/08/07 08:34:02;;;;;;;4.43;2.05;;;58.00;1.00;;;;;;4992946;28;20183;-88
2022/08/07 08:36:30;;;;;;;1.73;1.30;;;58.10;1.00;;;;;;4971904;28;20878;-87
2022/08/07 08:38:59;;;;;;;2.05;1.35;;;58.10;1.00;;;;;;4972128;28;20207;-87
2022/08/07 08:41:58;;;;;;;1.90;1.23;;;58.40;1.00;;;;;;4976184;28;20218;-86
2022/08/07 08:48:30;;;;;;;3.00;1.20;;;58.90;1.00;;;;;;4958243;28;20218;-87
2022/08/07 08:51:01;;;;;;;1.88;1.00;;;58.70;1.00;;;;;;4956565;28;20199;-84
2022/08/07 08:53:41;;;;;;;1.90;0.90;;;58.10;1.00;;;;;;5000544;28;20183;-84
2022/08/07 08:56:39;;;;;;;1.13;0.77;;;57.70;1.00;;;;;;4967389;28;20550;-85
2022/08/07 08:59:27;;;;;;;4.28;0.90;;;57.10;1.00;;;;;;4958178;28;20616;-85
2022/08/07 09:02:33;;;;;;;2.70;0.85;;;56.30;1.00;;;;;;4990034;28;20559;-84
2022/08/07 09:05:16;;;;;;;1.25;0.80;;;55.50;1.00;;;;;;4981445;28;20596;-85
2022/08/07 09:07:48;;;;;;;1.67;0.50;;;55.50;1.00;;;;;;4999661;28;20237;-83
2022/08/07 09:10:32;;;;;;;3.38;0.85;;;55.60;1.00;;;;;;4971242;28;20302;-84
2022/08/07 09:13:26;;;;;;;1.33;0.60;;;55.10;1.00;;;;;;4990207;28;20184;-84
2022/08/07 09:15:57;;;;;;;1.07;0.57;;;54.30;1.00;;;;;;4984323;28;20212;-84
2022/08/07 09:18:49;;;;;;;2.33;1.07;;;54.00;1.00;;;;;;4970610;28;20267;-84
2022/08/07 09:21:17;;;;;;;2.10;0.70;;;53.80;1.00;;;;;;4991597;28;20190;-85
2022/08/07 09:24:01;;;;;;;1.43;0.70;;;53.60;1.00;;;;;;4981709;28;20179;-87
2022/08/07 09:26:49;;;;;;;1.73;0.80;;;53.90;1.00;;;;;;4965039;28;20691;-86
2022/08/07 09:29:49;;;;;;;0.90;0.60;;;54.10;1.00;;;;;;4985307;28;20226;-86
2022/08/07 09:32:42;;;;;;;1.53;0.60;;;54.00;1.00;;;;;;4989650;28;20563;-86
2022/08/07 09:35:45;;;;;;;2.80;0.63;;;53.90;1.00;;;;;;4971330;28;20695;-86
2022/08/07 09:38:30;;;;;;;1.00;0.70;;;53.90;1.00;;;;;;4988548;28;20209;-85
2022/08/07 09:41:32;;;;;;;1.10;0.60;;;53.40;1.00;;;;;;4986188;28;20210;-85
2022/08/07 09:44:26;;;;;;;1.30;0.60;;;53.50;1.00;;;;;;4987856;28;20462;-86
2022/08/07 09:47:04;;;;;;;1.40;0.70;;;53.60;1.00;;;;;;4992676;28;20605;-86
2022/08/07 09:49:55;;;;;;;1.30;0.60;;;52.80;1.00;;;;;;4989221;28;20210;-84
2022/08/07 09:52:41;;;;;;;1.40;0.70;;;51.90;1.00;;;;;;4991868;28;20430;-84
2022/08/07 09:55:15;;;;;;;1.40;0.67;;;50.90;1.00;;;;;;4985595;28;20461;-86
2022/08/07 09:58:09;;;;;;;1.43;0.60;;;50.60;1.00;;;;;;4986583;28;20431;-86
2022/08/07 10:01:03;;;;;;;1.67;0.73;;;50.60;1.00;;;;;;4988184;28;20458;-87
2022/08/07 10:04:08;;;;;;;1.10;0.50;;;50.80;1.00;;;;;;4970472;28;20441;-87
2022/08/07 10:06:48;;;;;;;1.67;0.60;;;50.60;1.00;;;;;;4971998;28;20450;-86
2022/08/07 10:09:37;;;;;;;3.67;1.00;;;49.90;1.00;;;;;;4984895;28;20465;-86
2022/08/07 10:12:08;;;;;;;1.77;0.70;;;49.90;1.00;;;;;;4988572;28;20437;-84
2022/08/07 10:14:53;;;;;;;1.03;0.50;;;49.80;1.00;;;;;;4989191;28;20857;-86
2022/08/07 10:18:00;;;;;;;1.83;0.63;;;49.40;1.00;;;;;;4991094;28;20450;-84
2022/08/07 10:20:46;;;;;;;1.60;0.70;;;48.10;1.00;;;;;;4960725;28;20466;-84
2022/08/07 10:23:26;;;;;;;0.93;0.60;;;47.30;1.00;;;;;;4988589;28;20791;-84
2022/08/07 10:26:03;;;;;;;1.27;0.50;;;46.60;1.00;;;;;;4969377;28;20517;-84
2022/08/07 10:28:40;;;;;;;1.40;0.60;;;46.30;1.00;;;;;;4989614;28;20469;-82
2022/08/07 10:31:41;;;;;;;1.17;0.80;;;46.70;1.00;;;;;;4981246;28;20521;-85
2022/08/07 10:34:36;;;;;;;1.97;0.60;;;47.40;1.00;;;;;;4909072;29;20472;-84
2022/08/07 10:37:38;;;;;;;1.07;0.77;;;48.10;1.00;;;;;;4965461;28;20549;-83
2022/08/07 10:40:26;;;;;;;1.17;0.57;;;48.00;1.00;;;;;;4993093;28;20468;-84
2022/08/07 10:43:11;;;;;;;1.70;0.60;;;48.20;1.00;;;;;;4995643;28;20486;-84
2022/08/07 10:45:38;;;;;;;1.87;0.70;;;48.40;1.00;;;;;;5006781;23;20910;-82
2022/08/07 10:48:13;;;;;;;1.27;0.60;;;48.70;1.00;;;;;;4972435;28;20433;-82
2022/08/07 10:51:10;;;;;;;1.20;0.50;;;48.90;1.00;;;;;;4979352;28;20434;-83
2022/08/07 10:54:05;;;;;;;1.83;0.77;;;48.60;1.00;;;;;;4964926;28;20442;-83
2022/08/07 10:57:01;;;;;;;1.57;0.70;;;48.40;1.00;;;;;;4980785;28;20896;-82
2022/08/07 10:59:40;;;;;;;1.00;0.60;;;48.10;1.00;;;;;;4997971;28;20449;-83
2022/08/07 11:02:29;;;;;;;1.10;0.50;;;48.10;1.00;;;;;;4982427;28;20814;-83
2022/08/07 11:05:10;;;;;;;1.53;0.60;;;48.20;1.00;;;;;;4981466;28;20512;-83
2022/08/07 11:07:42;;;;;;;1.00;0.60;;;48.40;1.00;;;;;;4972506;28;20443;-84
2022/08/07 11:10:24;;;;;;;3.70;0.70;;;48.10;1.00;;;;;;4989498;28;20525;-84
2022/08/07 11:13:02;;;;;;;1.40;0.60;;;47.60;1.00;;;;;;4982243;28;20584;-82
2022/08/07 11:15:33;;;;;;;1.33;0.80;;;47.60;1.00;;;;;;4976922;28;20465;-83
2022/08/07 11:18:08;;;;;;;0.93;0.60;;;47.60;1.00;;;;;;4976345;28;20434;-83
2022/08/07 11:21:03;;;;;;;1.20;0.70;;;47.80;1.00;;;;;;4975992;28;20430;-82
2022/08/07 11:23:43;;;;;;;2.10;0.90;;;47.30;1.00;;;;;;4992665;28;20429;-81
2022/08/07 11:26:34;;;;;;;1.53;0.90;;;46.60;1.00;;;;;;4974892;28;20450;-82
2022/08/07 11:29:05;;;;;;;3.40;0.60;;;46.20;1.00;;;;;;4993146;28;20466;-83
2022/08/07 11:31:40;;;;;;;1.23;0.70;;;45.90;1.00;;;;;;4991473;28;20447;-82
2022/08/07 11:34:36;;;;;;;1.40;0.63;;;45.60;1.00;;;;;;4970989;28;20438;-82
2022/08/07 11:37:47;;;;;;;1.00;0.60;;;45.90;1.00;;;;;;4967822;28;20803;-82
2022/08/07 11:40:48;;;;;;;0.90;0.60;;;45.50;1.00;;;;;;4896830;28;20446;-83
2022/08/07 11:43:25;;;;;;;1.50;0.80;;;45.30;1.00;;;;;;4888515;29;20636;-84
2022/08/07 11:45:58;;;;;;;1.30;0.80;;;45.70;1.00;;;;;;4958432;28;20470;-84
2022/08/07 11:49:12;;;;;;;2.40;1.10;;;45.90;1.00;;;;;;4973559;28;20829;-84
2022/08/07 11:51:59;;;;;;;1.47;0.60;;;45.90;1.00;;;;;;4959310;28;20418;-84
2022/08/07 11:55:02;;;;;;;1.00;0.73;;;45.70;1.00;;;;;;4976901;28;20453;-82
2022/08/07 11:57:32;;;;;;;1.70;0.73;;;45.80;1.00;;;;;;4996705;28;20438;-83
2022/08/07 12:00:11;;;;;;;2.40;0.70;;;45.20;1.00;;;;;;4996709;28;20431;-83
2022/08/07 12:03:02;;;;;;;1.00;0.50;;;44.70;1.00;;;;;;4980251;28;20433;-82
2022/08/07 12:05:57;;;;;;;4.03;0.60;;;44.70;1.00;;;;;;4994376;28;21511;-82
2022/08/07 12:08:31;;;;;;;3.17;0.70;;;45.10;1.00;;;;;;4999637;28;20489;-82
2022/08/07 12:11:17;;;;;;;2.90;1.00;;;45.40;1.00;;;;;;4991896;28;20441;-82
2022/08/07 12:13:50;;;;;;;1.27;0.80;;;45.30;1.00;;;;;;4978529;28;20439;-84
2022/08/07 12:16:20;;;;;;;1.90;0.90;;;45.20;1.00;;;;;;4983367;28;20520;-82
2022/08/07 12:19:24;;;;;;;1.10;0.60;;;45.30;1.00;;;;;;4974443;28;20875;-82
2022/08/07 12:21:50;;;;;;;1.20;0.77;;;45.00;1.00;;;;;;4987296;28;20442;-82
2022/08/07 12:25:51;;;;;;;3.07;0.90;;;44.70;1.00;;;;;;4980379;28;20522;-83
2022/08/07 12:27:33;;;;;;;2.40;0.80;;;44.50;1.00;;;;;;4997201;28;20270;-84
2022/08/07 12:30:02;;;;;;;2.33;0.90;;;44.50;1.00;;;;;;4981553;28;20474;-82
2022/08/07 12:32:53;;;;;;;1.83;0.80;;;44.50;1.00;;;;;;4980426;28;20438;-82
2022/08/07 12:35:21;;;;;;;1.30;0.80;;;44.50;1.00;;;;;;4981682;28;20439;-81
2022/08/07 12:37:50;;;;;;;2.10;0.80;;;44.20;1.00;;;;;;4979625;28;20449;-81
2022/08/07 12:40:20;;;;;;;3.40;0.90;;;44.10;1.00;;;;;;4996713;28;20434;-82
2022/08/07 12:42:49;;;;;;;1.73;1.00;;;43.90;1.00;;;;;;5006034;28;20431;-81
2022/08/07 12:45:19;;;;;;;2.53;1.17;;;43.60;1.00;;;;;;4998396;28;20430;-82
2022/08/07 12:47:48;;;;;;;3.73;1.20;;;43.30;1.00;;;;;;4999634;28;20456;-82
2022/08/07 12:50:37;;;;;;;1.87;1.00;;;43.00;1.00;;;;;;4976894;28;20467;-81
2022/08/07 12:53:31;;;;;;;1.60;1.13;;;43.00;1.00;;;;;;4979943;28;20458;-82
2022/08/07 12:56:21;;;;;;;3.67;1.20;;;42.90;1.00;;;;;;4989033;28;20450;-81
2022/08/07 12:58:49;;;;;;;1.87;1.30;;;42.90;1.00;;;;;;4984310;28;20488;-83
2022/08/07 13:01:34;;;;;;;2.70;1.33;;;42.90;1.00;;;;;;4994369;28;20505;-82
2022/08/07 13:04:25;;;;;;;2.17;1.23;;;42.80;1.00;;;;;;4977582;28;20439;-81
2022/08/07 13:07:12;;;;;;;2.43;1.40;;;42.50;1.00;;;;;;4981146;28;20466;-82
2022/08/07 13:10:33;;;;;;;4.13;1.40;;;42.40;1.00;;;;;;4996000;28;20990;-82
2022/08/07 13:13:14;;;;;;;1.60;1.20;;;42.20;1.00;;;;;;4965885;28;20813;-82
2022/08/07 13:16:09;;;;;;;4.50;1.77;;;42.00;1.00;;;;;;4978853;28;20470;-81
2022/08/07 13:19:21;;;;;;;4.00;1.20;;;41.60;1.00;;;;;;4997933;28;20452;-82
2022/08/07 13:22:07;;;;;;;2.67;1.43;;;41.40;1.00;;;;;;4958906;28;20825;-81
2022/08/07 13:24:42;;;;;;;3.13;2.10;;;40.70;1.00;;;;;;4978837;28;20442;-84
2022/08/07 13:27:19;;;;;;;2.53;1.50;;;40.00;1.00;;;;;;5001365;28;20484;-81
2022/08/07 13:29:54;;;;;;;3.03;1.50;;;39.60;1.00;;;;;;4998359;28;20477;-81
2022/08/07 13:32:31;;;;;;;1.97;1.27;;;39.20;1.00;;;;;;4977497;28;20443;-83
2022/08/07 13:35:07;;;;;;;2.27;1.30;;;39.10;1.00;;;;;;4971358;28;20470;-81
2022/08/07 13:37:47;;;;;;;4.50;1.90;;;39.00;1.00;;;;;;4967603;28;20430;-81